Time;durP1;ratioP1;P1;durP2;ratioP2;P2;SDS_P1;SDS_P2;PMS_P1;PMS_P2;Temp;Humidity;BMP_temperature;BMP_pressure;BME280_temperature;BME280_humidity;BME280_pressure;Samples;Min_cycle;Max_cycle;Signal;HPM_P1;HPM_P2
2022/10/12 00:00:24;;;;;;;24.20;22.10;;;;;;;21.61;47.05;95638.47;6157938;28;103139;-66
2022/10/12 00:03:29;;;;;;;21.63;19.83;;;;;;;21.59;47.60;95640.63;6157727;28;103480;-66
2022/10/12 00:06:32;;;;;;;23.30;21.40;;;;;;;21.58;47.41;95644.38;6159129;28;103132;-67
2022/10/12 00:09:35;;;;;;;22.93;20.90;;;;;;;21.55;47.38;95632.44;6151543;28;103212;-66
2022/10/12 00:12:38;;;;;;;22.33;20.53;;;;;;;21.59;47.45;95630.00;6163049;28;103336;-66
2022/10/12 00:15:41;;;;;;;21.80;19.90;;;;;;;21.57;47.62;95627.63;6163348;28;103480;-66
2022/10/12 00:18:50;;;;;;;22.73;20.83;;;;;;;21.57;47.55;95627.63;6162375;28;103148;-67
2022/10/12 00:21:53;;;;;;;23.50;21.47;;;;;;;21.54;48.02;95624.75;6150996;28;103299;-66
2022/10/12 00:24:56;;;;;;;21.40;19.50;;;;;;;21.53;47.59;95621.28;6162343;28;102984;-66
2022/10/12 00:27:59;;;;;;;22.60;20.70;;;;;;;21.54;47.56;95622.06;6162421;28;103166;-66
2022/10/12 00:31:06;;;;;;;21.73;19.90;;;;;;;21.52;47.67;95625.81;6161165;28;103046;-67
2022/10/12 00:34:11;;;;;;;22.27;20.37;;;;;;;21.51;47.49;95626.91;6155277;28;105088;-66
2022/10/12 00:37:14;;;;;;;21.50;19.73;;;;;;;21.53;47.62;95626.63;6161624;28;103114;-66
2022/10/12 00:40:17;;;;;;;20.87;19.10;;;;;;;21.55;47.15;95615.66;6161794;28;103829;-66
2022/10/12 00:43:29;;;;;;;21.13;19.43;;;;;;;21.52;47.79;95609.84;6153278;28;103816;-67
2022/10/12 00:46:36;;;;;;;20.00;18.37;;;;;;;21.52;47.25;95622.38;6161525;28;103143;-66
2022/10/12 00:49:40;;;;;;;19.63;18.07;;;;;;;21.52;47.09;95625.03;6161639;28;103483;-66
2022/10/12 00:52:50;;;;;;;20.00;18.20;;;;;;;21.51;47.40;95613.59;6160907;28;103129;-66
2022/10/12 00:56:00;;;;;;;20.37;18.67;;;;;;;21.46;47.62;95612.84;6150968;28;103881;-67
2022/10/12 00:59:08;;;;;;;20.00;18.50;;;;;;;21.47;47.19;95609.88;6160906;28;103151;-67
2022/10/12 01:02:13;;;;;;;19.97;18.27;;;;;;;21.50;47.52;95611.97;6161384;28;103815;-67
2022/10/12 01:05:18;;;;;;;20.40;18.77;;;;;;;21.50;47.28;95603.97;6161190;28;103171;-66
2022/10/12 01:08:22;;;;;;;20.03;18.33;;;;;;;21.48;47.35;95606.16;6149984;28;103440;-67
2022/10/12 01:11:25;;;;;;;20.43;18.83;;;;;;;21.48;47.48;95608.81;6161441;28;103174;-67
2022/10/12 01:14:31;;;;;;;20.47;18.77;;;;;;;21.47;47.07;95607.22;6160867;28;104202;-68
2022/10/12 01:17:43;;;;;;;19.13;17.53;;;;;;;21.43;47.48;95608.09;6154728;28;104118;-67
2022/10/12 01:21:01;;;;;;;19.10;17.60;;;;;;;21.44;47.34;95615.81;6156033;28;103025;-67
2022/10/12 01:24:31;;;;;;;20.67;18.87;;;;;;;21.45;47.35;95614.72;6160028;28;103134;-67
2022/10/12 01:27:44;;;;;;;19.50;17.80;;;;;;;21.44;47.41;95618.47;6158252;28;103073;-67
2022/10/12 01:30:55;;;;;;;19.10;17.50;;;;;;;21.44;47.09;95615.81;6150441;28;103807;-67
2022/10/12 01:34:05;;;;;;;19.80;18.20;;;;;;;21.41;47.14;95611.06;6152254;28;103368;-67
2022/10/12 01:37:15;;;;;;;19.63;18.03;;;;;;;21.45;47.37;95611.25;6160511;28;102990;-67
2022/10/12 01:40:29;;;;;;;18.97;17.37;;;;;;;21.42;47.28;95615.28;6155162;28;105121;-67
2022/10/12 01:43:36;;;;;;;18.03;16.63;;;;;;;21.42;47.65;95615.28;6146569;28;103311;-68
2022/10/12 01:46:45;;;;;;;20.03;18.40;;;;;;;21.39;47.39;95605.22;6160051;28;105900;-67
2022/10/12 01:49:48;;;;;;;18.37;16.87;;;;;;;21.40;47.30;95609.47;6160271;28;103397;-67
2022/10/12 01:52:59;;;;;;;18.90;17.40;;;;;;;21.38;47.32;95616.97;6150081;28;103928;-67
2022/10/12 01:56:09;;;;;;;17.70;16.30;;;;;;;21.37;47.42;95612.72;6160178;28;103259;-67
2022/10/12 01:59:19;;;;;;;17.77;16.30;;;;;;;21.39;47.47;95618.53;6157831;28;103373;-67
2022/10/12 02:02:30;;;;;;;18.73;17.13;;;;;;;21.40;47.52;95611.34;6159398;28;103055;-67
2022/10/12 02:05:38;;;;;;;18.30;16.80;;;;;;;21.38;46.98;95608.97;6148574;28;103037;-67
2022/10/12 02:08:47;;;;;;;19.13;17.63;;;;;;;21.37;47.24;95612.72;6159212;28;103066;-67
2022/10/12 02:11:56;;;;;;;17.53;16.10;;;;;;;21.38;46.83;95614.28;6150552;28;103122;-67
2022/10/12 02:15:03;;;;;;;18.30;16.70;;;;;;;21.36;47.26;95624.44;6149103;28;103074;-66
2022/10/12 02:18:12;;;;;;;17.30;15.87;;;;;;;21.35;47.07;95627.38;6158597;28;103875;-67
2022/10/12 02:21:20;;;;;;;17.00;15.60;;;;;;;21.33;47.02;95629.53;6159226;28;103095;-66
2022/10/12 02:24:24;;;;;;;16.50;15.20;;;;;;;21.34;47.28;95637.25;6159077;28;104000;-67
2022/10/12 02:27:27;;;;;;;16.13;14.93;;;;;;;21.35;47.23;95638.03;6147564;28;103178;-67
2022/10/12 02:30:35;;;;;;;16.40;15.00;;;;;;;21.39;47.16;95631.06;6158255;28;103575;-67
2022/10/12 02:33:46;;;;;;;17.17;15.57;;;;;;;21.36;46.75;95635.09;6159718;28;104196;-66
2022/10/12 02:36:53;;;;;;;15.80;14.60;;;;;;;21.34;47.31;95639.91;6159458;28;103687;-68
2022/10/12 02:40:03;;;;;;;17.07;15.67;;;;;;;21.36;46.83;95637.75;6150058;28;104052;-66
2022/10/12 02:43:12;;;;;;;16.93;15.37;;;;;;;21.31;47.09;95637.78;6159717;28;102966;-66
2022/10/12 02:46:18;;;;;;;16.50;15.23;;;;;;;21.32;47.32;95630.59;6159024;28;103199;-67
2022/10/12 02:49:26;;;;;;;15.10;13.90;;;;;;;21.32;46.86;95636.72;6152396;28;104198;-66
2022/10/12 02:52:31;;;;;;;15.63;14.43;;;;;;;21.30;46.98;95633.56;6158491;28;103149;-67
2022/10/12 02:55:38;;;;;;;15.07;13.87;;;;;;;21.32;46.89;95627.94;6159127;28;103751;-66
2022/10/12 02:58:44;;;;;;;17.60;16.13;;;;;;;21.29;47.36;95629.31;6159056;28;103191;-67
2022/10/12 03:01:47;;;;;;;15.50;14.20;;;;;;;21.30;47.05;95630.09;6147994;28;106148;-67
2022/10/12 03:04:52;;;;;;;16.10;14.80;;;;;;;21.31;47.16;95635.13;6159208;28;103058;-67
2022/10/12 03:07:55;;;;;;;17.07;14.70;;;;;;;21.31;46.68;95632.47;6159268;28;103422;-67
2022/10/12 03:11:01;;;;;;;14.73;13.43;;;;;;;21.32;47.60;95622.63;6159310;28;103477;-67
2022/10/12 03:14:04;;;;;;;14.33;13.20;;;;;;;21.34;47.29;95634.59;6147865;28;104660;-66
2022/10/12 03:17:08;;;;;;;14.77;13.67;;;;;;;21.35;47.17;95628.19;6159095;28;103237;-66
2022/10/12 03:20:12;;;;;;;15.67;14.37;;;;;;;21.35;46.71;95625.53;6158738;28;102887;-64
2022/10/12 03:23:15;;;;;;;16.97;15.37;;;;;;;21.35;46.73;95625.53;6156101;28;103000;-65
2022/10/12 03:26:18;;;;;;;20.10;18.30;;;;;;;21.34;46.99;95631.94;6150923;28;104760;-66
2022/10/12 03:29:21;;;;;;;40.30;36.50;;;;;;;21.33;47.29;95634.84;6158978;28;103029;-64
2022/10/12 03:32:24;;;;;;;42.17;38.07;;;;;;;21.31;46.92;95629.81;6159248;28;103092;-65
2022/10/12 03:35:29;;;;;;;27.27;24.57;;;;;;;21.30;47.25;95630.88;6151088;28;103242;-67
2022/10/12 03:38:32;;;;;;;32.80;29.80;;;;;;;21.31;47.20;95637.00;6158215;28;103107;-67
2022/10/12 03:41:35;;;;;;;30.20;27.40;;;;;;;21.30;47.17;95635.41;6162067;28;105330;-64
2022/10/12 03:44:38;;;;;;;31.33;28.43;;;;;;;21.29;47.29;95639.94;6162075;28;103193;-65
2022/10/12 03:47:42;;;;;;;27.50;25.30;;;;;;;21.29;47.46;95636.50;6150697;28;103380;-65
2022/10/12 03:50:50;;;;;;;31.70;29.07;;;;;;;21.26;47.64;95629.88;6162377;28;103165;-63
2022/10/12 03:53:53;;;;;;;26.70;24.50;;;;;;;21.33;48.06;95625.00;6162850;28;103318;-63
2022/10/12 03:56:56;;;;;;;25.33;23.03;;;;;;;21.40;47.80;95633.44;6160943;28;103962;-64
2022/10/12 03:59:59;;;;;;;23.17;20.97;;;;;;;21.43;48.50;95630.19;6151944;28;105290;-65
2022/10/12 04:03:02;;;;;;;21.63;19.63;;;;;;;21.44;48.10;95634.44;6162063;28;104569;-65
2022/10/12 04:06:07;;;;;;;19.77;17.90;;;;;;;21.50;48.18;95635.16;6161624;28;103067;-64
2022/10/12 04:09:10;;;;;;;20.30;18.17;;;;;;;21.58;47.90;95641.72;6161674;28;103493;-66
2022/10/12 04:12:13;;;;;;;18.07;16.63;;;;;;;21.61;48.00;95641.94;6150890;28;102842;-66
2022/10/12 04:15:17;;;;;;;17.90;16.23;;;;;;;21.66;48.67;95638.41;6161370;28;103171;-64
2022/10/12 04:18:20;;;;;;;18.97;16.97;;;;;;;21.63;48.50;95639.78;6157192;28;103015;-64
2022/10/12 04:21:25;;;;;;;16.40;14.80;;;;;;;21.64;49.08;95638.69;6155913;28;103151;-65
2022/10/12 04:24:28;;;;;;;14.97;13.70;;;;;;;21.54;48.30;95643.38;6157720;28;103066;-65
2022/10/12 04:27:31;;;;;;;14.00;12.80;;;;;;;21.54;48.13;95640.72;6162901;28;103158;-63
2022/10/12 04:30:34;;;;;;;14.30;13.10;;;;;;;21.51;48.17;95648.22;6162848;28;102745;-64
2022/10/12 04:33:37;;;;;;;15.00;13.57;;;;;;;21.50;47.78;95649.25;6153007;28;103939;-64
2022/10/12 04:36:42;;;;;;;13.97;12.67;;;;;;;21.50;47.35;95645.81;6162751;28;103205;-64
2022/10/12 04:39:45;;;;;;;13.67;12.47;;;;;;;21.48;47.49;95654.06;6162134;28;103037;-66
2022/10/12 04:42:48;;;;;;;13.50;12.40;;;;;;;21.48;48.28;95646.09;6160015;28;102902;-65
2022/10/12 04:45:55;;;;;;;13.70;12.37;;;;;;;21.48;47.92;95648.75;6149170;28;103491;-65
2022/10/12 04:48:58;;;;;;;14.30;13.20;;;;;;;21.48;47.80;95653.28;6160380;28;102985;-65
2022/10/12 04:52:02;;;;;;;13.17;12.00;;;;;;;21.46;48.02;95655.44;6159603;28;102858;-64
2022/10/12 04:55:07;;;;;;;14.33;12.97;;;;;;;21.47;48.03;95657.03;6155828;28;104107;-64
2022/10/12 04:58:10;;;;;;;13.73;12.53;;;;;;;21.41;47.79;95664.31;6155756;28;103107;-63
2022/10/12 05:01:13;;;;;;;13.80;12.70;;;;;;;21.43;47.76;95662.16;6162348;28;104972;-64
2022/10/12 05:04:16;;;;;;;12.60;11.50;;;;;;;21.42;47.74;95663.22;6161977;28;103590;-63
2022/10/12 05:07:21;;;;;;;14.63;13.43;;;;;;;21.42;47.98;95663.22;6150541;28;104035;-63
2022/10/12 05:10:24;;;;;;;14.40;13.20;;;;;;;21.40;47.86;95673.38;6162045;28;103703;-64
2022/10/12 05:13:27;;;;;;;13.57;12.37;;;;;;;21.39;48.27;95673.66;6161423;28;103100;-63
2022/10/12 05:16:30;;;;;;;12.43;11.30;;;;;;;21.36;48.07;95677.69;6161683;28;102926;-63
2022/10/12 05:19:33;;;;;;;12.93;11.83;;;;;;;21.36;48.19;95679.56;6151888;28;105762;-63
2022/10/12 05:22:38;;;;;;;15.70;14.30;;;;;;;21.35;48.18;95681.44;6161941;28;103240;-63
2022/10/12 05:25:41;;;;;;;23.10;21.00;;;;;;;21.33;48.59;95686.22;6161228;28;103000;-63
2022/10/12 05:28:44;;;;;;;29.57;27.10;;;;;;;21.30;48.88;95691.31;6160999;28;103077;-63
2022/10/12 05:31:47;;;;;;;22.27;20.37;;;;;;;21.25;48.32;95694.84;6150662;28;104306;-63
2022/10/12 05:34:50;;;;;;;16.83;15.43;;;;;;;21.26;48.42;95696.44;6161257;28;103075;-63
2022/10/12 05:37:55;;;;;;;18.10;16.57;;;;;;;21.25;48.92;95696.72;6161230;28;103397;-63
2022/10/12 05:40:57;;;;;;;17.83;16.33;;;;;;;21.25;48.58;95697.50;6153919;28;103081;-65
2022/10/12 05:44:03;;;;;;;17.20;15.70;;;;;;;21.25;48.76;95705.50;6159357;28;103342;-64
2022/10/12 05:47:06;;;;;;;17.63;15.90;;;;;;;21.25;48.52;95691.41;6161432;28;103193;-63
2022/10/12 05:50:09;;;;;;;17.17;15.67;;;;;;;21.26;48.62;95706.28;6160994;28;103253;-64
2022/10/12 05:53:14;;;;;;;17.53;16.00;;;;;;;21.24;48.73;95709.22;6150619;28;103023;-63
2022/10/12 05:56:17;;;;;;;17.00;15.47;;;;;;;21.21;49.02;95705.28;6161913;28;105112;-63
2022/10/12 05:59:20;;;;;;;17.00;15.50;;;;;;;21.20;49.04;95711.66;6160154;28;103134;-63
2022/10/12 06:02:23;;;;;;;16.97;15.57;;;;;;;21.20;48.66;95714.34;6160697;28;103146;-64
2022/10/12 06:05:26;;;;;;;18.20;16.50;;;;;;;21.19;48.73;95719.94;6149336;28;103310;-65
2022/10/12 06:08:31;;;;;;;23.87;21.60;;;;;;;21.17;49.29;95722.06;6161039;28;103732;-64
2022/10/12 06:11:34;;;;;;;30.20;27.30;;;;;;;21.17;48.94;95722.91;6160666;28;102820;-63
2022/10/12 06:14:38;;;;;;;25.37;22.90;;;;;;;21.17;48.99;95727.38;6156617;28;104242;-64
2022/10/12 06:17:41;;;;;;;21.40;19.43;;;;;;;21.17;48.84;95732.72;6155834;28;103707;-64
2022/10/12 06:20:48;;;;;;;17.67;16.13;;;;;;;21.16;48.84;95733.78;6160257;28;103349;-65
2022/10/12 06:23:52;;;;;;;18.47;16.67;;;;;;;21.14;49.41;95733.28;6160795;28;103131;-63
2022/10/12 06:26:55;;;;;;;17.90;16.40;;;;;;;21.12;49.68;95740.75;6150619;28;106120;-64
2022/10/12 06:29:58;;;;;;;16.70;15.07;;;;;;;21.12;49.49;95740.75;6160366;28;103402;-64
2022/10/12 06:33:02;;;;;;;15.93;14.53;;;;;;;21.22;49.62;95743.31;6160425;28;104897;-64
2022/10/12 06:36:06;;;;;;;17.27;15.67;;;;;;;21.28;49.74;95742.19;6159402;28;103151;-62
2022/10/12 06:39:11;;;;;;;18.47;16.93;;;;;;;21.31;49.95;95741.63;6149370;28;104832;-64
2022/10/12 06:42:14;;;;;;;15.90;14.53;;;;;;;21.31;49.34;95749.59;6159591;28;103149;-63
2022/10/12 06:45:18;;;;;;;15.80;14.43;;;;;;;21.33;49.39;95747.44;6160659;28;104130;-62
2022/10/12 06:48:21;;;;;;;15.23;13.80;;;;;;;21.34;49.78;95746.41;6159471;28;104889;-66
2022/10/12 06:51:24;;;;;;;15.73;14.43;;;;;;;21.34;49.44;95750.91;6150253;28;103183;-63
2022/10/12 06:54:29;;;;;;;15.97;14.53;;;;;;;21.35;49.12;95750.66;6159540;28;103710;-64
2022/10/12 06:57:32;;;;;;;14.83;13.53;;;;;;;21.38;49.07;95760.72;6159059;28;103055;-65
2022/10/12 07:00:35;;;;;;;16.13;14.30;;;;;;;21.32;49.83;95755.72;6150394;28;104300;-65
2022/10/12 07:03:39;;;;;;;23.60;21.20;;;;;;;21.32;49.71;95753.06;6157736;28;103131;-63
2022/10/12 07:06:42;;;;;;;28.73;25.83;;;;;;;21.33;50.42;95759.97;6159053;28;103321;-66
2022/10/12 07:09:46;;;;;;;28.00;25.57;;;;;;;21.33;49.79;95765.28;6158815;28;103057;-65
2022/10/12 07:12:49;;;;;;;23.27;21.13;;;;;;;21.34;50.51;95762.38;6147745;28;105641;-64
2022/10/12 07:15:52;;;;;;;20.93;19.13;;;;;;;21.38;49.97;95768.72;6157782;28;103175;-64
2022/10/12 07:18:56;;;;;;;19.63;17.57;;;;;;;21.40;49.46;95769.22;6158833;28;102983;-64
2022/10/12 07:21:59;;;;;;;18.90;17.30;;;;;;;21.33;49.67;95762.63;6158702;28;105743;-64
2022/10/12 07:25:04;;;;;;;19.93;17.00;;;;;;;21.28;49.41;95766.16;6149029;28;103087;-64
2022/10/12 07:28:07;;;;;;;19.10;15.60;;;;;;;21.25;49.36;95772.03;6159151;28;103291;-64
2022/10/12 07:31:11;;;;;;;17.37;15.77;;;;;;;21.24;48.94;95765.13;6159089;28;105919;-64
2022/10/12 07:34:14;;;;;;;16.97;15.47;;;;;;;21.19;49.38;95768.66;6152502;28;103204;-65
2022/10/12 07:37:17;;;;;;;15.13;13.63;;;;;;;21.18;49.40;95763.59;6154095;28;103976;-65
2022/10/12 07:40:22;;;;;;;15.63;14.13;;;;;;;21.14;49.42;95763.34;6158504;28;103042;-65
2022/10/12 07:43:25;;;;;;;15.53;13.93;;;;;;;21.12;49.19;95770.81;6159384;28;106388;-65
2022/10/12 07:46:28;;;;;;;19.43;14.00;;;;;;;21.12;49.57;95770.81;6148211;28;104074;-64
2022/10/12 07:49:31;;;;;;;14.27;12.77;;;;;;;21.10;49.33;95772.19;6158455;28;103374;-65
2022/10/12 07:52:34;;;;;;;17.90;14.43;;;;;;;21.09;49.44;95767.94;6159019;28;103253;-66
2022/10/12 07:55:39;;;;;;;14.60;13.20;;;;;;;21.08;49.24;95766.34;6158708;28;103169;-65
2022/10/12 07:58:42;;;;;;;17.33;13.33;;;;;;;21.07;49.25;95768.22;6148760;28;103066;-65
2022/10/12 08:01:45;;;;;;;17.20;15.50;;;;;;;21.07;49.63;95775.41;6158934;28;104370;-64
2022/10/12 08:04:48;;;;;;;24.80;22.50;;;;;;;21.04;49.21;95767.97;6158282;28;102991;-64
2022/10/12 08:07:52;;;;;;;24.17;21.67;;;;;;;21.09;48.99;95775.94;6153332;28;103671;-68
2022/10/12 08:11:00;;;;;;;19.50;17.50;;;;;;;21.08;49.54;95769.00;6151877;28;103199;-64
2022/10/12 08:14:03;;;;;;;21.03;16.30;;;;;;;21.06;49.12;95768.50;6159187;28;104185;-66
2022/10/12 08:17:07;;;;;;;16.70;15.07;;;;;;;21.05;48.90;95772.25;6158877;28;104139;-64
2022/10/12 08:20:10;;;;;;;15.13;13.70;;;;;;;21.06;49.16;95768.50;6148025;28;102804;-64
2022/10/12 08:23:13;;;;;;;16.73;14.23;;;;;;;21.04;49.46;95773.28;6159110;28;103218;-64
2022/10/12 08:26:18;;;;;;;13.83;12.50;;;;;;;21.04;49.42;95767.97;6158896;28;103163;-65
2022/10/12 08:29:21;;;;;;;15.03;13.60;;;;;;;21.04;49.32;95773.28;6162486;28;103389;-64
2022/10/12 08:32:24;;;;;;;14.77;13.37;;;;;;;21.06;49.02;95774.63;6151615;28;105880;-64
2022/10/12 08:35:27;;;;;;;14.93;13.43;;;;;;;21.08;48.69;95771.69;6162638;28;103403;-62
2022/10/12 08:38:31;;;;;;;14.13;12.80;;;;;;;21.08;49.24;95766.34;6162721;28;102938;-64
2022/10/12 08:41:47;;;;;;;16.30;14.77;;;;;;;21.09;48.82;95775.94;6162324;28;103188;-67
2022/10/12 08:45:06;;;;;;;18.63;16.77;;;;;;;21.08;49.07;95771.69;6154220;28;103109;-64
2022/10/12 08:48:14;;;;;;;16.03;14.50;;;;;;;21.08;49.03;95769.00;6162369;28;103363;-64
2022/10/12 08:51:22;;;;;;;16.70;15.07;;;;;;;21.09;48.96;95775.94;6162647;28;102909;-65
2022/10/12 08:54:29;;;;;;;16.10;14.63;;;;;;;21.04;49.24;95771.41;6150636;28;103043;-64
2022/10/12 08:57:34;;;;;;;15.37;13.97;;;;;;;20.99;49.80;95774.09;6162719;28;103190;-65
2022/10/12 09:00:38;;;;;;;15.63;14.23;;;;;;;20.96;49.77;95774.69;6161986;28;103036;-65
2022/10/12 09:03:46;;;;;;;15.33;13.87;;;;;;;;;;6162045;28;103144;-64
2022/10/12 09:06:55;;;;;;;14.80;13.50;;;;;;;20.93;49.59;95770.72;6151866;28;103230;-66
2022/10/12 09:10:08;;;;;;;14.27;12.87;;;;;;;20.91;49.87;95770.19;6162233;28;104743;-65
2022/10/12 09:13:28;;;;;;;15.30;12.60;;;;;;;20.92;49.57;95771.78;6162988;28;103086;-67
2022/10/12 09:16:34;;;;;;;15.67;14.20;;;;;;;20.91;49.85;95772.88;6155204;28;105872;-65
2022/10/12 09:19:42;;;;;;;13.60;12.33;;;;;;;20.90;49.79;95776.59;6160870;28;102778;-65
2022/10/12 09:22:50;;;;;;;13.77;12.57;;;;;;;20.88;49.73;95765.44;6161983;28;103147;-66
2022/10/12 09:25:57;;;;;;;13.57;12.47;;;;;;;20.88;49.90;95772.63;6161661;28;103226;-64
2022/10/12 09:29:04;;;;;;;14.00;12.70;;;;;;;20.89;49.69;95777.66;6151974;28;104463;-64
2022/10/12 09:32:25;;;;;;;14.97;13.47;;;;;;;20.90;49.93;95773.16;6161064;28;103038;-64
2022/10/12 09:35:28;;;;;;;13.47;12.27;;;;;;;20.87;49.72;95771.03;6162159;28;103227;-64
2022/10/12 09:38:31;;;;;;;13.03;11.90;;;;;;;20.88;49.87;95781.41;6161127;28;103209;-64
2022/10/12 09:41:39;;;;;;;14.23;13.03;;;;;;;20.83;50.07;95780.63;6151937;28;103324;-67
2022/10/12 09:44:46;;;;;;;14.13;12.93;;;;;;;20.82;50.08;95779.84;6162070;28;103123;-66
2022/10/12 09:48:15;;;;;;;13.90;12.60;;;;;;;20.84;49.84;95777.72;6161243;28;103374;-64
2022/10/12 09:51:19;;;;;;;12.70;11.60;;;;;;;20.86;49.98;95772.91;6151104;28;103070;-68
2022/10/12 09:54:26;;;;;;;13.10;12.07;;;;;;;20.83;49.85;95773.44;6161596;28;106138;-67
2022/10/12 09:57:33;;;;;;;13.13;12.00;;;;;;;20.85;49.80;95775.84;6161152;28;103175;-68
2022/10/12 10:00:37;;;;;;;12.90;11.90;;;;;;;20.87;49.65;95761.19;6162060;28;102825;-68
2022/10/12 10:03:40;;;;;;;12.77;11.67;;;;;;;20.86;49.91;95767.59;6150488;28;105018;-68
2022/10/12 10:06:46;;;;;;;13.13;11.87;;;;;;;20.82;49.97;95766.53;6160997;28;103211;-67
2022/10/12 10:10:04;;;;;;;13.13;11.73;;;;;;;20.85;49.79;95758.03;6160818;28;103190;-67
2022/10/12 10:13:15;;;;;;;12.10;11.10;;;;;;;20.85;49.74;95760.69;6155051;28;103045;-67
2022/10/12 10:16:23;;;;;;;12.47;11.27;;;;;;;20.88;49.73;95760.13;6157211;28;103165;-67
2022/10/12 10:19:26;;;;;;;12.33;11.33;;;;;;;20.86;49.69;95753.50;6161252;28;103218;-68
2022/10/12 10:22:30;;;;;;;11.60;10.70;;;;;;;20.88;49.25;95752.16;6160730;28;102812;-67
2022/10/12 10:25:34;;;;;;;12.77;10.70;;;;;;;20.87;49.98;95741.78;6149696;28;103242;-68
2022/10/12 10:28:39;;;;;;;12.10;11.00;;;;;;;20.86;49.79;95740.19;6160473;28;103297;-68
2022/10/12 10:31:46;;;;;;;11.53;10.63;;;;;;;20.87;49.47;95742.56;6159850;28;103171;-67
2022/10/12 10:35:02;;;;;;;11.53;10.53;;;;;;;20.89;49.20;95736.97;6160777;28;103185;-68
2022/10/12 10:38:06;;;;;;;11.73;10.70;;;;;;;20.91;49.34;95734.81;6149996;28;104619;-67
2022/10/12 10:41:16;;;;;;;11.40;10.50;;;;;;;20.93;49.47;95727.34;6161004;28;106089;-68
2022/10/12 10:44:29;;;;;;;12.10;11.00;;;;;;;20.89;49.80;95731.66;6159699;28;103094;-67
2022/10/12 10:47:42;;;;;;;12.50;11.30;;;;;;;20.90;49.54;95725.25;6150074;28;103034;-68
2022/10/12 10:50:51;;;;;;;10.97;10.03;;;;;;;20.89;49.52;95721.00;6159219;28;103170;-68
2022/10/12 10:53:55;;;;;;;11.60;10.57;;;;;;;20.89;49.06;95723.69;6159480;28;103222;-68
2022/10/12 10:57:02;;;;;;;11.90;11.00;;;;;;;20.92;49.12;95718.56;6159981;28;103168;-67
2022/10/12 11:00:11;;;;;;;13.20;12.10;;;;;;;20.92;49.08;95707.94;6149646;28;104105;-68
2022/10/12 11:03:45;;;;;;;12.63;11.40;;;;;;;20.93;49.17;95717.50;6159902;28;103242;-68
2022/10/12 11:06:57;;;;;;;12.70;11.60;;;;;;;20.91;48.88;95716.19;6159657;28;102816;-68
2022/10/12 11:10:07;;;;;;;12.57;11.47;;;;;;;20.90;49.07;95720.72;6151160;28;103909;-68
2022/10/12 11:13:17;;;;;;;12.83;11.43;;;;;;;20.90;49.07;95704.75;6159679;28;103254;-67
2022/10/12 11:16:27;;;;;;;14.43;13.13;;;;;;;20.91;48.80;95701.03;6159576;28;103176;-68
2022/10/12 11:19:39;;;;;;;13.03;11.90;;;;;;;20.91;48.70;95703.69;6160159;28;103024;-68
2022/10/12 11:22:49;;;;;;;13.70;12.30;;;;;;;20.87;49.07;95701.88;6148887;28;104205;-68
2022/10/12 11:26:03;;;;;;;13.27;12.07;;;;;;;20.86;49.03;95701.09;6160390;28;104441;-68
2022/10/12 11:29:06;;;;;;;13.33;12.23;;;;;;;20.87;48.72;95696.56;6159234;28;103185;-68
2022/10/12 11:32:19;;;;;;;11.70;10.70;;;;;;;20.88;48.61;95696.28;6154256;28;103042;-67
2022/10/12 11:35:29;;;;;;;13.90;12.60;;;;;;;20.89;48.80;95689.88;6154458;28;104193;-70
2022/10/12 11:38:38;;;;;;;13.00;11.70;;;;;;;20.90;48.80;95686.16;6159257;28;103323;-68
2022/10/12 11:41:45;;;;;;;12.37;11.37;;;;;;;20.90;48.59;95680.81;6159645;28;103125;-67
2022/10/12 11:45:20;;;;;;;14.40;13.20;;;;;;;20.91;48.69;95677.09;6147819;28;104144;-67
2022/10/12 11:48:28;;;;;;;13.60;12.40;;;;;;;20.91;48.71;95677.09;6159232;28;103147;-67
2022/10/12 11:51:33;;;;;;;13.77;12.33;;;;;;;20.93;48.91;95684.78;6159603;28;104174;-68
2022/10/12 11:54:42;;;;;;;14.70;13.40;;;;;;;20.92;48.78;95684.00;6158276;28;103371;-68
2022/10/12 11:57:47;;;;;;;14.23;12.93;;;;;;;20.93;48.76;95685.56;6153512;28;104535;-68
2022/10/12 12:01:06;;;;;;;13.90;12.70;;;;;;;20.91;48.85;95686.94;6159592;28;103498;-67
2022/10/12 12:04:26;;;;;;;16.33;14.73;;;;;;;20.87;49.00;95685.91;6163146;28;103267;-69
2022/10/12 12:07:52;;;;;;;13.57;12.47;;;;;;;20.72;49.31;95681.53;6152396;28;103821;-70
2022/10/12 12:11:18;;;;;;;13.73;12.47;;;;;;;20.58;49.44;95683.25;6163705;28;103121;-69
2022/10/12 12:14:59;;;;;;;13.20;12.00;;;;;;;20.71;49.32;95687.94;6162855;28;103004;-69
2022/10/12 12:18:12;;;;;;;12.90;11.80;;;;;;;20.78;49.10;95682.28;6155932;28;103559;-70
2022/10/12 12:21:15;;;;;;;13.47;12.37;;;;;;;20.76;48.75;95679.91;6163031;28;104014;-67
2022/10/12 12:24:19;;;;;;;13.53;12.37;;;;;;;20.78;48.96;95684.94;6162872;28;103223;-68
2022/10/12 12:27:31;;;;;;;14.30;12.90;;;;;;;20.78;49.20;95676.97;6163191;28;103272;-68
2022/10/12 12:30:38;;;;;;;12.83;11.70;;;;;;;20.78;49.02;95680.41;6153379;28;105269;-68
2022/10/12 12:33:44;;;;;;;12.03;10.93;;;;;;;20.82;48.85;95677.97;6163352;28;103184;-68
2022/10/12 12:36:50;;;;;;;13.83;12.57;;;;;;;20.82;48.96;95667.34;6162472;28;103015;-68
2022/10/12 12:39:58;;;;;;;13.27;12.07;;;;;;;20.86;48.89;95669.16;6163070;28;103112;-69
2022/10/12 12:43:36;;;;;;;12.80;11.60;;;;;;;20.84;48.88;95681.16;6153277;28;103188;-70
2022/10/12 12:47:16;;;;;;;12.70;11.70;;;;;;;20.86;48.93;95679.81;6162886;28;103048;-69
2022/10/12 12:50:40;;;;;;;13.23;12.13;;;;;;;20.87;48.49;95676.06;6162608;28;103122;-69
2022/10/12 12:53:47;;;;;;;14.57;13.23;;;;;;;20.89;48.54;95679.25;6152459;28;106633;-69
2022/10/12 12:57:12;;;;;;;14.70;13.40;;;;;;;20.87;48.44;95673.41;6162191;28;103006;-68
2022/10/12 13:00:21;;;;;;;14.60;12.67;;;;;;;20.91;48.87;95679.75;6161773;28;103038;-68
2022/10/12 13:03:50;;;;;;;13.20;12.10;;;;;;;20.95;48.72;95681.84;6155757;28;103122;-69
2022/10/12 13:07:27;;;;;;;13.60;12.30;;;;;;;20.99;48.54;95680.19;6161197;28;103065;-69
2022/10/12 13:10:42;;;;;;;14.27;12.87;;;;;;;20.97;48.73;95679.69;6162781;28;102743;-69
2022/10/12 13:13:58;;;;;;;13.07;11.97;;;;;;;20.98;48.68;95687.38;6159820;28;103046;-69
2022/10/12 13:17:18;;;;;;;14.20;12.80;;;;;;;20.99;48.87;95693.50;6152009;28;103189;-68
2022/10/12 13:20:39;;;;;;;12.67;11.53;;;;;;;21.01;48.62;95683.38;6161605;28;103293;-62
2022/10/12 13:23:45;;;;;;;13.40;12.20;;;;;;;21.00;48.95;95684.44;6162168;28;103261;-67
2022/10/12 13:26:50;;;;;;;14.07;12.87;;;;;;;21.00;48.64;95687.09;6151338;28;103147;-68
2022/10/12 13:29:59;;;;;;;14.63;13.27;;;;;;;20.99;48.81;95680.19;6161467;28;105180;-68
2022/10/12 13:33:12;;;;;;;15.60;14.03;;;;;;;21.00;48.71;95679.91;6161829;28;103001;-68
2022/10/12 13:36:21;;;;;;;13.80;12.50;;;;;;;20.98;48.75;95689.25;6161311;28;103484;-68
2022/10/12 13:39:24;;;;;;;14.53;13.20;;;;;;;20.98;48.84;95686.59;6151715;28;104867;-68
2022/10/12 13:42:32;;;;;;;14.63;13.33;;;;;;;20.99;49.06;95693.50;6161578;28;103351;-67
2022/10/12 13:45:45;;;;;;;14.90;13.50;;;;;;;20.98;48.97;95691.91;6162164;28;102987;-68
2022/10/12 13:48:51;;;;;;;14.60;13.03;;;;;;;20.98;48.83;95697.22;6154827;28;105448;-68
2022/10/12 13:52:23;;;;;;;16.30;14.90;;;;;;;20.98;48.87;95686.59;6161769;28;105675;-67
2022/10/12 13:55:32;;;;;;;14.80;13.60;;;;;;;20.97;48.93;95688.47;6160839;28;103196;-67
2022/10/12 13:58:36;;;;;;;14.37;13.13;;;;;;;20.98;48.56;95683.94;6161238;28;103509;-68
2022/10/12 14:01:53;;;;;;;14.67;13.33;;;;;;;20.96;49.00;95694.06;6151293;28;105857;-68
2022/10/12 14:04:58;;;;;;;14.87;13.47;;;;;;;20.93;48.66;95684.78;6160872;28;103317;-68
2022/10/12 14:08:11;;;;;;;14.67;13.37;;;;;;;20.94;48.94;95691.69;6160214;28;103452;-68
2022/10/12 14:11:16;;;;;;;15.70;14.27;;;;;;;20.92;49.02;95693.84;6156031;28;105758;-68